sensor_id;sensor_type;location;lat;lon;timestamp;pressure;altitude;pressure_sealevel;temperature;humidity
47530;BME280;33272;51.922;7.730;2024-01-10T00:00:08;102553.94;;;14.19;60.96
47530;BME280;33272;51.922;7.730;2024-01-10T00:02:35;102550.38;;;14.18;61.18
47530;BME280;33272;51.922;7.730;2024-01-10T00:05:01;102545.25;;;14.17;61.07
47530;BME280;33272;51.922;7.730;2024-01-10T00:07:28;102545.25;;;14.17;61.13
47530;BME280;33272;51.922;7.730;2024-01-10T00:09:55;102548.78;;;14.17;60.98
47530;BME280;33272;51.922;7.730;2024-01-10T00:12:22;102540.91;;;14.16;61.10
47530;BME280;33272;51.922;7.730;2024-01-10T00:14:49;102539.34;;;14.15;61.10
47530;BME280;33272;51.922;7.730;2024-01-10T00:17:17;102542.84;;;14.15;61.07
47530;BME280;33272;51.922;7.730;2024-01-10T00:19:43;102544.81;;;14.15;61.07
47530;BME280;33272;51.922;7.730;2024-01-10T00:22:09;102539.34;;;14.15;61.12
47530;BME280;33272;51.922;7.730;2024-01-10T00:24:36;102537.38;;;14.15;61.27
47530;BME280;33272;51.922;7.730;2024-01-10T00:27:03;102540.09;;;14.15;61.06
47530;BME280;33272;51.922;7.730;2024-01-10T00:29:30;102542.84;;;14.15;61.43
47530;BME280;33272;51.922;7.730;2024-01-10T00:31:57;102526.41;;;14.15;60.69
47530;BME280;33272;51.922;7.730;2024-01-10T00:34:26;102517.41;;;14.15;60.98
47530;BME280;33272;51.922;7.730;2024-01-10T00:36:52;102525.63;;;14.15;61.12
47530;BME280;33272;51.922;7.730;2024-01-10T00:39:19;102520.16;;;14.15;60.91
47530;BME280;33272;51.922;7.730;2024-01-10T00:41:45;102511.94;;;14.15;61.00
47530;BME280;33272;51.922;7.730;2024-01-10T00:44:12;102511.94;;;14.15;60.85
47530;BME280;33272;51.922;7.730;2024-01-10T00:46:38;102513.88;;;14.14;60.78
47530;BME280;33272;51.922;7.730;2024-01-10T00:49:05;102524.47;;;14.16;60.97
47530;BME280;33272;51.922;7.730;2024-01-10T00:51:33;102520.16;;;14.15;60.85
47530;BME280;33272;51.922;7.730;2024-01-10T00:53:59;102512.69;;;14.15;60.94
47530;BME280;33272;51.922;7.730;2024-01-10T00:56:26;102514.69;;;14.15;60.97
47530;BME280;33272;51.922;7.730;2024-01-10T00:58:52;102508.41;;;14.14;60.89
47530;BME280;33272;51.922;7.730;2024-01-10T01:01:23;102512.69;;;14.15;60.94
47530;BME280;33272;51.922;7.730;2024-01-10T01:03:49;102507.59;;;14.14;60.89
47530;BME280;33272;51.922;7.730;2024-01-10T01:06:16;102502.91;;;14.14;60.80
47530;BME280;33272;51.922;7.730;2024-01-10T01:08:44;102507.22;;;14.15;60.86
47530;BME280;33272;51.922;7.730;2024-01-10T01:11:10;102503.72;;;14.15;60.52
47530;BME280;33272;51.922;7.730;2024-01-10T01:13:39;102507.22;;;14.15;60.85
47530;BME280;33272;51.922;7.730;2024-01-10T01:16:06;102505.28;;;14.16;60.88
47530;BME280;33272;51.922;7.730;2024-01-10T01:18:32;102507.22;;;14.15;60.84
47530;BME280;33272;51.922;7.730;2024-01-10T01:20:59;102515.09;;;14.17;60.88
47530;BME280;33272;51.922;7.730;2024-01-10T01:23:25;102505.28;;;14.16;60.80
47530;BME280;33272;51.922;7.730;2024-01-10T01:25:53;102506.88;;;14.17;60.76
47530;BME280;33272;51.922;7.730;2024-01-10T01:28:20;102505.28;;;14.16;60.55
47530;BME280;33272;51.922;7.730;2024-01-10T01:30:46;102501.41;;;14.17;60.69
47530;BME280;33272;51.922;7.730;2024-01-10T01:33:13;102508.81;;;14.16;60.94
47530;BME280;33272;51.922;7.730;2024-01-10T01:35:39;102500.59;;;14.16;60.68
47530;BME280;33272;51.922;7.730;2024-01-10T01:38:04;102506.88;;;14.17;60.60
47530;BME280;33272;51.922;7.730;2024-01-10T01:40:31;102506.88;;;14.17;60.71
47530;BME280;33272;51.922;7.730;2024-01-10T01:42:59;102501.41;;;14.17;60.61
47530;BME280;33272;51.922;7.730;2024-01-10T01:45:25;102501.41;;;14.17;60.76
47530;BME280;33272;51.922;7.730;2024-01-10T01:47:52;102494.31;;;14.16;60.68
47530;BME280;33272;51.922;7.730;2024-01-10T01:50:18;102497.53;;;14.18;60.64
47530;BME280;33272;51.922;7.730;2024-01-10T01:52:45;102493.97;;;14.17;60.53
47530;BME280;33272;51.922;7.730;2024-01-10T01:55:12;102486.56;;;14.18;60.69
47530;BME280;33272;51.922;7.730;2024-01-10T01:57:38;102486.56;;;14.18;60.57
47530;BME280;33272;51.922;7.730;2024-01-10T02:00:08;102486.56;;;14.18;60.54
47530;BME280;33272;51.922;7.730;2024-01-10T02:02:35;102493.97;;;14.17;60.49
47530;BME280;33272;51.922;7.730;2024-01-10T02:05:02;102483.38;;;14.16;60.53
47530;BME280;33272;51.922;7.730;2024-01-10T02:07:30;102485.75;;;14.17;60.56
47530;BME280;33272;51.922;7.730;2024-01-10T02:09:56;102485.75;;;14.17;60.62
47530;BME280;33272;51.922;7.730;2024-01-10T02:12:24;102493.97;;;14.17;60.55
47530;BME280;33272;51.922;7.730;2024-01-10T02:14:50;102486.56;;;14.18;60.53
47530;BME280;33272;51.922;7.730;2024-01-10T02:17:19;102487.72;;;14.17;60.49
47530;BME280;33272;51.922;7.730;2024-01-10T02:19:45;102474.00;;;14.17;60.52
47530;BME280;33272;51.922;7.730;2024-01-10T02:22:12;102477.88;;;14.16;60.57
47530;BME280;33272;51.922;7.730;2024-01-10T02:24:38;102486.56;;;14.18;60.61
47530;BME280;33272;51.922;7.730;2024-01-10T02:27:06;102471.25;;;14.17;60.49
47530;BME280;33272;51.922;7.730;2024-01-10T02:29:34;102467.38;;;14.18;60.33
47530;BME280;33272;51.922;7.730;2024-01-10T02:32:00;102464.19;;;14.16;60.47
47530;BME280;33272;51.922;7.730;2024-01-10T02:34:27;102455.97;;;14.16;60.50
47530;BME280;33272;51.922;7.730;2024-01-10T02:36:55;102460.31;;;14.17;60.38
47530;BME280;33272;51.922;7.730;2024-01-10T02:39:22;102455.97;;;14.16;60.43
47530;BME280;33272;51.922;7.730;2024-01-10T02:41:49;102453.22;;;14.16;60.47
47530;BME280;33272;51.922;7.730;2024-01-10T02:44:17;102446.59;;;14.17;60.31
47530;BME280;33272;51.922;7.730;2024-01-10T02:46:44;102447.75;;;14.16;60.46
47530;BME280;33272;51.922;7.730;2024-01-10T02:49:11;102447.75;;;14.16;60.47
47530;BME280;33272;51.922;7.730;2024-01-10T02:51:37;102453.22;;;14.16;60.88
47530;BME280;33272;51.922;7.730;2024-01-10T02:54:04;102448.53;;;14.16;60.36
47530;BME280;33272;51.922;7.730;2024-01-10T02:56:30;102446.19;;;14.15;60.43
47530;BME280;33272;51.922;7.730;2024-01-10T02:58:57;102442.25;;;14.16;60.46
47530;BME280;33272;51.922;7.730;2024-01-10T03:01:25;102439.91;;;14.14;60.45
47530;BME280;33272;51.922;7.730;2024-01-10T03:03:51;102441.47;;;14.15;60.38
47530;BME280;33272;51.922;7.730;2024-01-10T03:06:18;102435.97;;;14.15;60.40
47530;BME280;33272;51.922;7.730;2024-01-10T03:08:44;102439.91;;;14.14;60.41
47530;BME280;33272;51.922;7.730;2024-01-10T03:11:11;102431.69;;;14.14;60.39
47530;BME280;33272;51.922;7.730;2024-01-10T03:13:37;102435.22;;;14.15;60.36
47530;BME280;33272;51.922;7.730;2024-01-10T03:16:04;102437.97;;;14.15;60.27
47530;BME280;33272;51.922;7.730;2024-01-10T03:18:32;102435.22;;;14.15;60.29
47530;BME280;33272;51.922;7.730;2024-01-10T03:20:59;102436.78;;;14.16;60.27
47530;BME280;33272;51.922;7.730;2024-01-10T03:23:25;102440.69;;;14.15;60.30
47530;BME280;33272;51.922;7.730;2024-01-10T03:25:52;102437.97;;;14.15;60.32
47530;BME280;33272;51.922;7.730;2024-01-10T03:28:19;102437.97;;;14.15;60.22
47530;BME280;33272;51.922;7.730;2024-01-10T03:30:45;102438.72;;;14.15;60.23
47530;BME280;33272;51.922;7.730;2024-01-10T03:33:12;102430.50;;;14.15;60.23
47530;BME280;33272;51.922;7.730;2024-01-10T03:35:40;102429.75;;;14.15;60.17
47530;BME280;33272;51.922;7.730;2024-01-10T03:38:06;102425.41;;;14.14;60.30
47530;BME280;33272;51.922;7.730;2024-01-10T03:40:33;102429.75;;;14.15;60.25
47530;BME280;33272;51.922;7.730;2024-01-10T03:43:00;102425.41;;;14.14;60.28
47530;BME280;33272;51.922;7.730;2024-01-10T03:45:26;102419.91;;;14.14;60.23
47530;BME280;33272;51.922;7.730;2024-01-10T03:47:53;102412.03;;;14.12;60.36
47530;BME280;33272;51.922;7.730;2024-01-10T03:50:20;102410.09;;;14.13;60.31
47530;BME280;33272;51.922;7.730;2024-01-10T03:52:48;102401.09;;;14.12;60.06
47530;BME280;33272;51.922;7.730;2024-01-10T03:55:14;102416.72;;;14.12;60.26
47530;BME280;33272;51.922;7.730;2024-01-10T03:57:41;102417.53;;;14.12;60.27
47530;BME280;33272;51.922;7.730;2024-01-10T04:00:08;102406.56;;;14.12;60.47
47530;BME280;33272;51.922;7.730;2024-01-10T04:02:36;102415.59;;;14.13;60.27
47530;BME280;33272;51.922;7.730;2024-01-10T04:05:06;102412.03;;;14.12;60.09
47530;BME280;33272;51.922;7.730;2024-01-10T04:07:33;102412.84;;;14.13;60.18
47530;BME280;33272;51.922;7.730;2024-01-10T04:10:01;102412.84;;;14.13;60.08
47530;BME280;33272;51.922;7.730;2024-01-10T04:12:27;102412.84;;;14.13;60.14
47530;BME280;33272;51.922;7.730;2024-01-10T04:14:54;102412.03;;;14.12;60.23
47530;BME280;33272;51.922;7.730;2024-01-10T04:17:20;102410.09;;;14.13;60.24
47530;BME280;33272;51.922;7.730;2024-01-10T04:19:47;102415.59;;;14.13;60.15
47530;BME280;33272;51.922;7.730;2024-01-10T04:22:13;102417.19;;;14.14;60.39
47530;BME280;33272;51.922;7.730;2024-01-10T04:24:40;102421.84;;;14.13;60.06
47530;BME280;33272;51.922;7.730;2024-01-10T04:27:07;102420.72;;;14.14;60.06
47530;BME280;33272;51.922;7.730;2024-01-10T04:29:34;102426.19;;;14.14;60.00
47530;BME280;33272;51.922;7.730;2024-01-10T04:32:00;102410.91;;;14.13;60.13
47530;BME280;33272;51.922;7.730;2024-01-10T04:34:27;102408.59;;;14.15;60.12
47530;BME280;33272;51.922;7.730;2024-01-10T04:36:53;102408.59;;;14.15;60.09
47530;BME280;33272;51.922;7.730;2024-01-10T04:39:20;102397.63;;;14.15;60.00
47530;BME280;33272;51.922;7.730;2024-01-10T04:41:46;102395.69;;;14.16;60.06
47530;BME280;33272;51.922;7.730;2024-01-10T04:44:15;102401.97;;;14.16;59.90
47530;BME280;33272;51.922;7.730;2024-01-10T04:46:42;102406.66;;;14.16;60.11
47530;BME280;33272;51.922;7.730;2024-01-10T04:49:08;102402.75;;;14.17;60.17
47530;BME280;33272;51.922;7.730;2024-01-10T04:51:35;102401.97;;;14.16;59.93
47530;BME280;33272;51.922;7.730;2024-01-10T04:54:02;102400.38;;;14.15;60.10
47530;BME280;33272;51.922;7.730;2024-01-10T04:56:28;102400.03;;;14.17;60.03
47530;BME280;33272;51.922;7.730;2024-01-10T04:58:55;102401.97;;;14.16;60.01
47530;BME280;33272;51.922;7.730;2024-01-10T05:01:23;102402.75;;;14.17;59.95
47530;BME280;33272;51.922;7.730;2024-01-10T05:03:50;102410.97;;;14.17;60.31
47530;BME280;33272;51.922;7.730;2024-01-10T05:06:16;102415.31;;;14.18;60.05
47530;BME280;33272;51.922;7.730;2024-01-10T05:08:43;102416.47;;;14.17;59.97
47530;BME280;33272;51.922;7.730;2024-01-10T05:11:09;102414.53;;;14.17;59.90
47530;BME280;33272;51.922;7.730;2024-01-10T05:13:36;102418.06;;;14.18;59.94
47530;BME280;33272;51.922;7.730;2024-01-10T05:16:02;102413.72;;;14.17;60.02
47530;BME280;33272;51.922;7.730;2024-01-10T05:18:30;102405.97;;;14.19;59.96
47530;BME280;33272;51.922;7.730;2024-01-10T05:20:57;102411.78;;;14.17;60.12
47530;BME280;33272;51.922;7.730;2024-01-10T05:23:24;102416.47;;;14.17;60.02
47530;BME280;33272;51.922;7.730;2024-01-10T05:25:50;102413.72;;;14.17;60.06
47530;BME280;33272;51.922;7.730;2024-01-10T05:28:17;102406.31;;;14.17;60.03
47530;BME280;33272;51.922;7.730;2024-01-10T05:30:43;102403.56;;;14.17;59.58
47530;BME280;33272;51.922;7.730;2024-01-10T05:33:10;102403.56;;;14.17;59.72
47530;BME280;33272;51.922;7.730;2024-01-10T05:35:38;102403.56;;;14.17;59.82
47530;BME280;33272;51.922;7.730;2024-01-10T05:38:05;102393.41;;;14.18;59.81
47530;BME280;33272;51.922;7.730;2024-01-10T05:40:32;102398.44;;;14.16;59.91
47530;BME280;33272;51.922;7.730;2024-01-10T05:42:58;102394.53;;;14.17;59.81
47530;BME280;33272;51.922;7.730;2024-01-10T05:45:25;102398.09;;;14.17;59.80
47530;BME280;33272;51.922;7.730;2024-01-10T05:47:53;102397.28;;;14.17;59.92
47530;BME280;33272;51.922;7.730;2024-01-10T05:50:20;102414.53;;;14.17;59.92
47530;BME280;33272;51.922;7.730;2024-01-10T05:52:48;102413.72;;;14.17;59.72
47530;BME280;33272;51.922;7.730;2024-01-10T05:55:15;102396.84;;;14.15;59.90
47530;BME280;33272;51.922;7.730;2024-01-10T05:57:41;102409.38;;;14.16;59.81
47530;BME280;33272;51.922;7.730;2024-01-10T06:00:09;102420.34;;;14.16;59.78
47530;BME280;33272;51.922;7.730;2024-01-10T06:02:36;102419.53;;;14.15;59.89
47530;BME280;33272;51.922;7.730;2024-01-10T06:05:05;102414.88;;;14.16;59.89
47530;BME280;33272;51.922;7.730;2024-01-10T06:07:31;102425.81;;;14.16;59.82
47530;BME280;33272;51.922;7.730;2024-01-10T06:09:59;102419.19;;;14.17;59.79
47530;BME280;33272;51.922;7.730;2024-01-10T06:12:26;102418.41;;;14.16;59.80
47530;BME280;33272;51.922;7.730;2024-01-10T06:14:53;102415.66;;;14.16;59.79
47530;BME280;33272;51.922;7.730;2024-01-10T06:17:19;102408.25;;;14.17;59.86
47530;BME280;33272;51.922;7.730;2024-01-10T06:19:46;102408.25;;;14.17;59.57
47530;BME280;33272;51.922;7.730;2024-01-10T06:22:13;102409.84;;;14.18;59.92
47530;BME280;33272;51.922;7.730;2024-01-10T06:24:39;102407.56;;;14.20;59.72
47530;BME280;33272;51.922;7.730;2024-01-10T06:27:08;102408.00;;;14.22;59.77
47530;BME280;33272;51.922;7.730;2024-01-10T06:29:35;102411.53;;;14.22;59.72
47530;BME280;33272;51.922;7.730;2024-01-10T06:32:01;102408.44;;;14.24;59.82
47530;BME280;33272;51.922;7.730;2024-01-10T06:34:28;102395.53;;;14.24;59.91
47530;BME280;33272;51.922;7.730;2024-01-10T06:36:55;102396.75;;;14.27;59.73
47530;BME280;33272;51.922;7.730;2024-01-10T06:39:22;102399.16;;;14.28;59.86
47530;BME280;33272;51.922;7.730;2024-01-10T06:41:49;102407.50;;;14.32;59.82
47530;BME280;33272;51.922;7.730;2024-01-10T06:44:16;102405.97;;;14.34;59.76
47530;BME280;33272;51.922;7.730;2024-01-10T06:46:44;102403.59;;;14.33;59.98
47530;BME280;33272;51.922;7.730;2024-01-10T06:49:10;102400.94;;;14.36;59.77
47530;BME280;33272;51.922;7.730;2024-01-10T06:51:37;102406.53;;;14.40;59.72
47530;BME280;33272;51.922;7.730;2024-01-10T06:54:04;102395.56;;;14.40;59.75
47530;BME280;33272;51.922;7.730;2024-01-10T06:56:31;102393.28;;;14.42;59.84
47530;BME280;33272;51.922;7.730;2024-01-10T06:58:58;102397.25;;;14.45;59.67
47530;BME280;33272;51.922;7.730;2024-01-10T07:01:26;102402.41;;;14.46;59.19
47530;BME280;33272;51.922;7.730;2024-01-10T07:03:53;102397.72;;;14.47;59.38
47530;BME280;33272;51.922;7.730;2024-01-10T07:06:21;102400.09;;;14.48;59.49
47530;BME280;33272;51.922;7.730;2024-01-10T07:08:48;102400.09;;;14.48;59.47
47530;BME280;33272;51.922;7.730;2024-01-10T07:11:15;102395.75;;;14.47;59.41
47530;BME280;33272;51.922;7.730;2024-01-10T07:13:41;102398.97;;;14.49;59.45
47530;BME280;33272;51.922;7.730;2024-01-10T07:16:08;102402.84;;;14.48;59.69
47530;BME280;33272;51.922;7.730;2024-01-10T07:18:36;102393.03;;;14.47;59.60
47530;BME280;33272;51.922;7.730;2024-01-10T07:21:03;102398.84;;;14.46;59.66
47530;BME280;33272;51.922;7.730;2024-01-10T07:23:30;102405.13;;;14.46;59.32
47530;BME280;33272;51.922;7.730;2024-01-10T07:25:57;102405.84;;;14.43;59.60
47530;BME280;33272;51.922;7.730;2024-01-10T07:28:24;102413.28;;;14.43;59.50
47530;BME280;33272;51.922;7.730;2024-01-10T07:30:50;102410.44;;;14.39;59.59
47530;BME280;33272;51.922;7.730;2024-01-10T07:33:17;102404.53;;;14.37;59.45
47530;BME280;33272;51.922;7.730;2024-01-10T07:35:45;102405.19;;;14.34;59.57
47530;BME280;33272;51.922;7.730;2024-01-10T07:38:11;102417.28;;;14.33;59.50
47530;BME280;33272;51.922;7.730;2024-01-10T07:40:38;102408.19;;;14.29;59.39
47530;BME280;33272;51.922;7.730;2024-01-10T07:43:04;102407.72;;;14.27;59.52
47530;BME280;33272;51.922;7.730;2024-01-10T07:45:31;102408.44;;;14.24;59.57
47530;BME280;33272;51.922;7.730;2024-01-10T07:47:58;102406.03;;;14.22;59.55
47530;BME280;33272;51.922;7.730;2024-01-10T07:50:25;102406.41;;;14.21;59.65
47530;BME280;33272;51.922;7.730;2024-01-10T07:52:54;102413.03;;;14.20;59.52
47530;BME280;33272;51.922;7.730;2024-01-10T07:55:21;102427.88;;;14.19;59.61
47530;BME280;33272;51.922;7.730;2024-01-10T07:57:48;102416.13;;;14.18;59.52
47530;BME280;33272;51.922;7.730;2024-01-10T08:00:15;102419.66;;;14.19;59.66
47530;BME280;33272;51.922;7.730;2024-01-10T08:02:42;102425.13;;;14.19;59.56
47530;BME280;33272;51.922;7.730;2024-01-10T08:05:08;102422.41;;;14.19;59.58
47530;BME280;33272;51.922;7.730;2024-01-10T08:07:35;102419.31;;;14.20;59.50
47530;BME280;33272;51.922;7.730;2024-01-10T08:10:04;102419.75;;;14.22;59.44
47530;BME280;33272;51.922;7.730;2024-01-10T08:12:30;102427.16;;;14.22;59.56
47530;BME280;33272;51.922;7.730;2024-01-10T08:14:57;102423.28;;;14.23;59.64
47530;BME280;33272;51.922;7.730;2024-01-10T08:17:24;102430.38;;;14.24;59.53
47530;BME280;33272;51.922;7.730;2024-01-10T08:19:50;102426.47;;;14.25;59.54
47530;BME280;33272;51.922;7.730;2024-01-10T08:22:17;102426.13;;;14.26;59.36
47530;BME280;33272;51.922;7.730;2024-01-10T08:24:45;102436.72;;;14.28;59.41
47530;BME280;33272;51.922;7.730;2024-01-10T08:27:13;102424.63;;;14.29;59.38
47530;BME280;33272;51.922;7.730;2024-01-10T08:29:39;102429.75;;;14.30;59.53
47530;BME280;33272;51.922;7.730;2024-01-10T08:32:06;102425.50;;;14.33;59.44
47530;BME280;33272;51.922;7.730;2024-01-10T08:34:32;102416.13;;;14.34;59.55
47530;BME280;33272;51.922;7.730;2024-01-10T08:36:59;102419.69;;;14.34;59.34
47530;BME280;33272;51.922;7.730;2024-01-10T08:39:25;102431.09;;;14.36;59.55
47530;BME280;33272;51.922;7.730;2024-01-10T08:41:53;102422.56;;;14.38;59.38
47530;BME280;33272;51.922;7.730;2024-01-10T08:44:22;102421.38;;;14.39;59.40
47530;BME280;33272;51.922;7.730;2024-01-10T08:46:48;102423.44;;;14.42;59.39
47530;BME280;33272;51.922;7.730;2024-01-10T08:49:16;102417.97;;;14.42;59.43
47530;BME280;33272;51.922;7.730;2024-01-10T08:51:43;102422.31;;;14.43;59.27
47530;BME280;33272;51.922;7.730;2024-01-10T08:54:11;102412.13;;;14.44;59.23
47530;BME280;33272;51.922;7.730;2024-01-10T08:56:42;102415.69;;;14.44;59.36
47530;BME280;33272;51.922;7.730;2024-01-10T08:59:09;102413.69;;;14.45;59.40
47530;BME280;33272;51.922;7.730;2024-01-10T09:01:37;102414.16;;;14.47;59.17
47530;BME280;33272;51.922;7.730;2024-01-10T09:04:04;102416.09;;;14.46;59.40
47530;BME280;33272;51.922;7.730;2024-01-10T09:06:31;102412.22;;;14.47;59.38
47530;BME280;33272;51.922;7.730;2024-01-10T09:08:57;102417.34;;;14.49;59.40
47530;BME280;33272;51.922;7.730;2024-01-10T09:11:24;102405.66;;;14.52;59.58
47530;BME280;33272;51.922;7.730;2024-01-10T09:13:50;102414.00;;;14.55;59.46
47530;BME280;33272;51.922;7.730;2024-01-10T09:16:17;102400.72;;;14.57;59.60
47530;BME280;33272;51.922;7.730;2024-01-10T09:18:46;102405.50;;;14.60;59.45
47530;BME280;33272;51.922;7.730;2024-01-10T09:21:13;102405.50;;;14.60;59.22
47530;BME280;33272;51.922;7.730;2024-01-10T09:23:40;102402.78;;;14.60;59.31
47530;BME280;33272;51.922;7.730;2024-01-10T09:26:07;102396.91;;;14.62;59.42
47530;BME280;33272;51.922;7.730;2024-01-10T09:28:34;102400.09;;;14.64;59.31
47530;BME280;33272;51.922;7.730;2024-01-10T09:31:01;102401.25;;;14.63;59.25
47530;BME280;33272;51.922;7.730;2024-01-10T09:33:27;102405.94;;;14.62;59.45
47530;BME280;33272;51.922;7.730;2024-01-10T09:35:55;102409.13;;;14.64;58.79
47530;BME280;33272;51.922;7.730;2024-01-10T09:38:22;102404.00;;;14.63;59.16
47530;BME280;33272;51.922;7.730;2024-01-10T09:40:48;102401.25;;;14.63;59.21
47530;BME280;33272;51.922;7.730;2024-01-10T09:43:15;102402.50;;;14.65;59.24
47530;BME280;33272;51.922;7.730;2024-01-10T09:45:43;102404.09;;;14.66;59.07
47530;BME280;33272;51.922;7.730;2024-01-10T09:48:13;102395.41;;;14.64;59.36
47530;BME280;33272;51.922;7.730;2024-01-10T09:50:40;102398.63;;;14.66;59.28
47530;BME280;33272;51.922;7.730;2024-01-10T09:53:16;102393.47;;;14.65;58.93
47530;BME280;33272;51.922;7.730;2024-01-10T09:55:48;102393.13;;;14.66;59.32
47530;BME280;33272;51.922;7.730;2024-01-10T09:58:15;102398.22;;;14.68;59.33
47530;BME280;33272;51.922;7.730;2024-01-10T10:00:41;102402.94;;;14.67;59.24
47530;BME280;33272;51.922;7.730;2024-01-10T10:03:09;102401.78;;;14.68;58.93
47530;BME280;33272;51.922;7.730;2024-01-10T10:05:37;102396.28;;;14.68;59.20
47530;BME280;33272;51.922;7.730;2024-01-10T10:08:06;102401.44;;;14.70;59.20
47530;BME280;33272;51.922;7.730;2024-01-10T10:10:36;102398.69;;;14.70;59.09
47530;BME280;33272;51.922;7.730;2024-01-10T10:13:08;102393.56;;;14.68;59.12
47530;BME280;33272;51.922;7.730;2024-01-10T10:15:36;102397.09;;;14.69;59.17
47530;BME280;33272;51.922;7.730;2024-01-10T10:18:03;102391.59;;;14.69;59.24
47530;BME280;33272;51.922;7.730;2024-01-10T10:20:30;102386.13;;;14.69;59.12
47530;BME280;33272;51.922;7.730;2024-01-10T10:23:00;102394.72;;;14.67;59.20
47530;BME280;33272;51.922;7.730;2024-01-10T10:25:28;102393.13;;;14.66;59.13
47530;BME280;33272;51.922;7.730;2024-01-10T10:27:57;102388.34;;;14.63;59.18
47530;BME280;33272;51.922;7.730;2024-01-10T10:30:24;102390.66;;;14.61;59.41
47530;BME280;33272;51.922;7.730;2024-01-10T10:32:50;102398.44;;;14.59;59.41
47530;BME280;33272;51.922;7.730;2024-01-10T10:35:18;102394.88;;;14.59;59.44
47530;BME280;33272;51.922;7.730;2024-01-10T10:37:45;102399.56;;;14.58;59.50
47530;BME280;33272;51.922;7.730;2024-01-10T10:40:11;102388.16;;;14.56;59.43
47530;BME280;33272;51.922;7.730;2024-01-10T10:42:42;102383.84;;;14.55;59.32
47530;BME280;33272;51.922;7.730;2024-01-10T10:45:14;102388.88;;;14.53;59.39
47530;BME280;33272;51.922;7.730;2024-01-10T10:47:41;102382.94;;;14.51;59.48
47530;BME280;33272;51.922;7.730;2024-01-10T10:50:12;102388.78;;;14.50;59.37
47530;BME280;33272;51.922;7.730;2024-01-10T10:52:41;102384.47;;;14.49;59.38
47530;BME280;33272;51.922;7.730;2024-01-10T10:55:10;102380.91;;;14.48;59.25
47530;BME280;33272;51.922;7.730;2024-01-10T10:57:40;102379.66;;;14.46;59.25
47530;BME280;33272;51.922;7.730;2024-01-10T11:00:09;102381.59;;;14.45;59.23
47530;BME280;33272;51.922;7.730;2024-01-10T11:02:38;102380.03;;;14.44;59.31
47530;BME280;33272;51.922;7.730;2024-01-10T11:05:05;102378.44;;;14.43;59.20
47530;BME280;33272;51.922;7.730;2024-01-10T11:07:34;102376.84;;;14.42;59.18
47530;BME280;33272;51.922;7.730;2024-01-10T11:10:04;102376.84;;;14.42;59.19
47530;BME280;33272;51.922;7.730;2024-01-10T11:12:45;102378.00;;;14.41;59.05
47530;BME280;33272;51.922;7.730;2024-01-10T11:15:28;102363.50;;;14.41;59.10
47530;BME280;33272;51.922;7.730;2024-01-10T11:18:14;102375.97;;;14.38;58.89
47530;BME280;33272;51.922;7.730;2024-01-10T11:20:56;102363.84;;;14.39;58.93
47530;BME280;33272;51.922;7.730;2024-01-10T11:23:42;102370.50;;;14.38;58.62
47530;BME280;33272;51.922;7.730;2024-01-10T11:26:10;102373.66;;;14.40;59.40
47530;BME280;33272;51.922;7.730;2024-01-10T11:28:38;102363.50;;;14.41;59.23
47530;BME280;33272;51.922;7.730;2024-01-10T11:31:06;102369.41;;;14.43;59.18
47530;BME280;33272;51.922;7.730;2024-01-10T11:33:36;102366.34;;;14.44;58.92
47530;BME280;33272;51.922;7.730;2024-01-10T11:36:15;102362.00;;;14.43;58.76
47530;BME280;33272;51.922;7.730;2024-01-10T11:38:43;102361.63;;;14.45;59.00
47530;BME280;33272;51.922;7.730;2024-01-10T11:41:11;102350.66;;;14.45;58.99
47530;BME280;33272;51.922;7.730;2024-01-10T11:43:38;102338.94;;;14.44;59.21
47530;BME280;33272;51.922;7.730;2024-01-10T11:46:05;102340.88;;;14.44;58.95
47530;BME280;33272;51.922;7.730;2024-01-10T11:48:32;102348.72;;;14.45;59.04
47530;BME280;33272;51.922;7.730;2024-01-10T11:51:00;102349.16;;;14.47;58.98
47530;BME280;33272;51.922;7.730;2024-01-10T11:53:43;102344.03;;;14.46;58.53
47530;BME280;33272;51.922;7.730;2024-01-10T11:56:13;102353.50;;;14.48;58.97
47530;BME280;33272;51.922;7.730;2024-01-10T11:59:01;102346.44;;;14.47;58.37
47530;BME280;33272;51.922;7.730;2024-01-10T12:01:29;102350.03;;;14.51;59.10
47530;BME280;33272;51.922;7.730;2024-01-10T12:03:57;102347.31;;;14.51;58.92
47530;BME280;33272;51.922;7.730;2024-01-10T12:06:26;102342.28;;;14.53;58.87
47530;BME280;33272;51.922;7.730;2024-01-10T12:08:53;102342.28;;;14.53;58.86
47530;BME280;33272;51.922;7.730;2024-01-10T12:11:19;102337.25;;;14.55;58.92
47530;BME280;33272;51.922;7.730;2024-01-10T12:13:46;102335.28;;;14.56;58.92
47530;BME280;33272;51.922;7.730;2024-01-10T12:16:13;102329.81;;;14.56;59.00
47530;BME280;33272;51.922;7.730;2024-01-10T12:18:40;102329.81;;;14.56;58.86
47530;BME280;33272;51.922;7.730;2024-01-10T12:21:06;102335.72;;;14.58;58.84
47530;BME280;33272;51.922;7.730;2024-01-10T12:23:36;102340.50;;;14.61;58.56
47530;BME280;33272;51.922;7.730;2024-01-10T12:26:04;102332.63;;;14.59;58.70
47530;BME280;33272;51.922;7.730;2024-01-10T12:28:32;102334.22;;;14.60;58.57
47530;BME280;33272;51.922;7.730;2024-01-10T12:30:59;102327.94;;;14.60;58.67
47530;BME280;33272;51.922;7.730;2024-01-10T12:33:25;102333.44;;;14.60;58.51
47530;BME280;33272;51.922;7.730;2024-01-10T12:36:13;102322.00;;;14.58;57.80
47530;BME280;33272;51.922;7.730;2024-01-10T12:38:41;102323.25;;;14.60;58.96
47530;BME280;33272;51.922;7.730;2024-01-10T12:41:07;102327.59;;;14.61;58.64
47530;BME280;33272;51.922;7.730;2024-01-10T12:43:35;102324.06;;;14.61;58.80
47530;BME280;33272;51.922;7.730;2024-01-10T12:46:05;102328.34;;;14.62;58.63
47530;BME280;33272;51.922;7.730;2024-01-10T12:48:32;102322.53;;;14.63;58.62
47530;BME280;33272;51.922;7.730;2024-01-10T12:51:01;102315.44;;;14.62;58.57